Time;durP1;ratioP1;P1;durP2;ratioP2;P2;SDS_P1;SDS_P2;PMS_P1;PMS_P2;Temp;Humidity;BMP_temperature;BMP_pressure;BME280_temperature;BME280_humidity;BME280_pressure;Samples;Min_cycle;Max_cycle;Signal;HPM_P1;HPM_P2
2023/08/06 00:00:26;;;;;;;;;;;;;;;22.56;75.33;98271.19;4213973;34;32919;-88
2023/08/06 00:03:03;;;;;;;;;;;;;;;22.31;76.03;98269.78;4208160;34;33640;-89
2023/08/06 00:05:42;;;;;;;;;;;;;;;22.35;76.15;98265.09;4195241;34;34174;-90
2023/08/06 00:08:11;;;;;;;;;;;;;;;22.21;76.69;98263.63;4201939;34;32360;-89
2023/08/06 00:10:44;;;;;;;;;;;;;;;22.31;75.85;98263.69;4203260;34;33934;-86
2023/08/06 00:13:12;;;;;;;;;;;;;;;22.29;75.75;98247.94;4217263;34;34880;-85
2023/08/06 00:15:41;;;;;;;;;;;;;;;22.37;75.15;98245.50;4208251;34;33691;-87
2023/08/06 00:18:09;;;;;;;;;;;;;;;21.83;77.63;98243.00;4209516;34;34713;-85
2023/08/06 00:20:43;;;;;;;;;;;;;;;21.61;79.50;98254.50;4213527;34;33406;-88
2023/08/06 00:23:12;;;;;;;;;;;;;;;21.91;77.61;98249.31;4215278;34;34250;-89
2023/08/06 00:25:59;;;;;;;;;;;;;;;21.95;77.66;98252.56;4204804;34;35535;-87
2023/08/06 00:28:28;;;;;;;;;;;;;;;21.72;79.24;98265.00;4214338;34;34234;-88
2023/08/06 00:30:57;;;;;;;;;;;;;;;21.85;78.99;98270.13;4211959;34;33271;-86
2023/08/06 00:33:30;;;;;;;;;;;;;;;22.02;77.77;98258.16;4210321;34;33884;-86
2023/08/06 00:35:58;;;;;;;;;;;;;;;21.76;78.67;98252.41;4216593;34;33930;-86
2023/08/06 00:38:27;;;;;;;;;;;;;;;21.68;79.75;98259.12;4197792;34;35618;-85
2023/08/06 00:41:00;;;;;;;;;;;;;;;21.57;80.64;98263.59;4214567;34;33591;-86
2023/08/06 00:43:33;;;;;;;;;;;;;;;21.47;80.86;98253.78;4211437;34;33007;-86
2023/08/06 00:46:02;;;;;;;;;;;;;;;21.41;80.91;98240.28;4213904;34;34284;-86
2023/08/06 00:48:34;;;;;;;;;;;;;;;21.76;78.68;98237.38;4215618;34;34767;-86
2023/08/06 00:51:03;;;;;;;;;;;;;;;21.65;78.86;98230.38;4214246;34;32873;-87
2023/08/06 00:53:34;;;;;;;;;;;;;;;21.40;80.02;98228.03;4210600;34;34875;-86
2023/08/06 00:56:05;;;;;;;;;;;;;;;21.15;82.02;98227.34;4207205;34;34559;-86
2023/08/06 00:58:37;;;;;;;;;;;;;;;21.30;81.70;98220.84;4202504;34;32604;-86
2023/08/06 01:01:06;;;;;;;;;;;;;;;21.49;81.33;98222.03;4206435;34;33165;-87
2023/08/06 01:03:35;;;;;;;;;;;;;;;21.32;81.45;98212.81;4208063;34;34603;-88
2023/08/06 01:06:06;;;;;;;;;;;;;;;21.29;81.62;98208.63;4199612;34;35082;-89
2023/08/06 01:08:37;;;;;;;;;;;;;;;21.16;80.89;98210.56;4212945;34;33792;-89
2023/08/06 01:11:13;;;;;;;;;;;;;;;21.17;81.15;98200.88;4216542;34;34174;-87
2023/08/06 01:13:49;;;;;;;;;;;;;;;21.02;81.29;98187.09;4212467;34;33918;-88
2023/08/06 01:16:20;;;;;;;;;;;;;;;21.24;80.71;98186.22;4211390;34;34596;-88
2023/08/06 01:18:51;;;;;;;;;;;;;;;21.44;78.84;98182.00;4196785;34;33859;-91
2023/08/06 01:21:21;;;;;;;;;;;;;;;21.21;80.57;98182.00;4215249;34;32924;-89
2023/08/06 01:23:54;;;;;;;;;;;;;;;21.08;81.52;98173.44;4203605;34;34523;-87
2023/08/06 01:26:26;;;;;;;;;;;;;;;21.19;80.16;98176.03;4206707;34;35162;-88
2023/08/06 01:28:57;;;;;;;;;;;;;;;21.22;79.36;98177.59;4213649;34;33936;-87
2023/08/06 01:31:28;;;;;;;;;;;;;;;20.95;81.46;98176.22;4199201;34;31620;-88
2023/08/06 01:33:56;;;;;;;;;;;;;;;20.98;81.03;98183.88;4216075;34;34442;-88
2023/08/06 01:36:29;;;;;;;;;;;;;;;21.05;79.03;98190.34;4198460;34;34995;-87
2023/08/06 01:38:59;;;;;;;;;;;;;;;20.78;80.49;98181.97;4211153;34;34412;-88
2023/08/06 01:41:28;;;;;;;;;;;;;;;20.75;82.16;98184.84;4201276;34;34458;-87
2023/08/06 01:44:00;;;;;;;;;;;;;;;20.97;80.19;98189.25;4210914;34;36089;-90
2023/08/06 01:46:29;;;;;;;;;;;;;;;20.91;80.41;98187.97;4212797;34;34266;-90
2023/08/06 01:49:00;;;;;;;;;;;;;;;20.95;79.42;98184.12;4211206;34;33538;-87
2023/08/06 01:51:35;;;;;;;;;;;;;;;20.77;80.62;98180.31;4211827;34;34108;-89
2023/08/06 01:54:05;;;;;;;;;;;;;;;20.60;81.84;98169.28;4196384;34;34742;-87
2023/08/06 01:56:36;;;;;;;;;;;;;;;20.94;80.64;98165.78;4215988;34;33789;-89
2023/08/06 01:59:05;;;;;;;;;;;;;;;20.69;82.18;98154.56;4212186;34;34081;-87
2023/08/06 02:01:36;;;;;;;;;;;;;;;20.97;79.63;98155.84;4210894;34;33422;-87
2023/08/06 02:04:05;;;;;;;;;;;;;;;20.75;80.58;98147.97;4209528;34;34496;-88
2023/08/06 02:06:34;;;;;;;;;;;;;;;20.84;80.33;98140.16;4196031;34;34115;-89
2023/08/06 02:09:03;;;;;;;;;;;;;;;20.95;79.94;98134.03;4216993;34;34624;-86
2023/08/06 02:11:35;;;;;;;;;;;;;;;20.98;78.94;98130.31;4212050;34;33092;-89
2023/08/06 02:14:04;;;;;;;;;;;;;;;20.93;78.87;98122.78;4210561;34;34744;-87
2023/08/06 02:16:33;;;;;;;;;;;;;;;20.71;80.38;98118.41;4210324;34;34778;-88
2023/08/06 02:19:07;;;;;;;;;;;;;;;20.64;80.47;98106.66;4203000;34;34662;-90
2023/08/06 02:21:36;;;;;;;;;;;;;;;20.77;80.42;98103.87;4198963;34;35006;-90
2023/08/06 02:24:05;;;;;;;;;;;;;;;20.74;80.42;98104.97;4211269;34;34054;-88
2023/08/06 02:26:38;;;;;;;;;;;;;;;20.84;79.92;98110.34;4206730;34;34146;-88
2023/08/06 02:29:13;;;;;;;;;;;;;;;20.94;79.54;98102.53;4212442;34;34454;-90
2023/08/06 02:31:46;;;;;;;;;;;;;;;20.79;80.12;98102.78;4207445;34;32900;-90
2023/08/06 02:34:15;;;;;;;;;;;;;;;20.68;79.85;98105.44;4212138;34;33845;-88
2023/08/06 02:36:46;;;;;;;;;;;;;;;20.70;80.37;98102.69;4197993;34;33328;-91
2023/08/06 02:39:14;;;;;;;;;;;;;;;20.79;79.58;98102.78;4210351;34;33652;-88
2023/08/06 02:41:45;;;;;;;;;;;;;;;20.33;82.09;98098.53;4203734;34;33869;-88
2023/08/06 02:44:14;;;;;;;;;;;;;;;20.51;81.32;98092.75;4213607;34;33944;-90
2023/08/06 02:46:52;;;;;;;;;;;;;;;20.88;79.68;98091.50;4209599;34;34695;-88
2023/08/06 02:49:21;;;;;;;;;;;;;;;20.80;80.10;98079.91;4196845;34;34637;-90
2023/08/06 02:51:50;;;;;;;;;;;;;;;20.87;79.62;98074.00;4205396;34;32209;-89
2023/08/06 02:54:20;;;;;;;;;;;;;;;20.86;80.12;98071.50;4200199;34;33778;-89
2023/08/06 02:56:51;;;;;;;;;;;;;;;20.84;79.95;98081.34;4199598;34;34557;-89
2023/08/06 02:59:20;;;;;;;;;;;;;;;20.84;80.04;98094.53;4199027;34;33816;-91
2023/08/06 03:01:51;;;;;;;;;;;;;;;21.03;78.32;98093.88;4198268;34;33348;-90
2023/08/06 03:04:21;;;;;;;;;;;;;;;20.99;79.35;98092.44;4209025;34;33943;-91
2023/08/06 03:06:57;;;;;;;;;;;;;;;21.04;77.94;98088.44;4218037;34;33608;-90
2023/08/06 03:09:27;;;;;;;;;;;;;;;21.06;77.19;98089.16;4212915;34;33910;-90
2023/08/06 03:12:01;;;;;;;;;;;;;;;20.85;78.79;98097.03;4214972;34;33817;-88
2023/08/06 03:14:30;;;;;;;;;;;;;;;20.95;78.17;98091.00;4196431;34;34359;-89
2023/08/06 03:17:08;;;;;;;;;;;;;;;20.63;80.18;98089.16;4196467;34;34204;-91
2023/08/06 03:19:40;;;;;;;;;;;;;;;20.91;78.99;98085.16;4211335;34;36465;-89
2023/08/06 03:22:09;;;;;;;;;;;;;;;21.07;78.32;98079.47;4215408;34;33269;-89
2023/08/06 03:24:39;;;;;;;;;;;;;;;20.91;78.80;98085.16;4199471;34;34244;-90
2023/08/06 03:27:10;;;;;;;;;;;;;;;20.76;79.45;98087.25;4200397;34;35449;-92
2023/08/06 03:29:42;;;;;;;;;;;;;;;20.69;79.87;98087.84;4203091;34;35230;-90
2023/08/06 03:32:11;;;;;;;;;;;;;;;20.78;79.76;98090.59;4200945;34;33689;-89
2023/08/06 03:34:40;;;;;;;;;;;;;;;20.89;78.27;98081.81;4196965;34;34705;-90
2023/08/06 03:37:09;;;;;;;;;;;;;;;20.76;78.80;98074.06;4201802;34;34850;-89
2023/08/06 03:39:39;;;;;;;;;;;;;;;20.70;79.92;98081.63;4203295;34;35089;-89
2023/08/06 03:42:13;;;;;;;;;;;;;;;20.63;80.47;98076.00;4217596;34;33689;-90
2023/08/06 03:44:42;;;;;;;;;;;;;;;20.82;78.85;98093.81;4197388;34;33794;-91
2023/08/06 03:47:12;;;;;;;;;;;;;;;20.82;78.53;98092.00;4211335;34;34035;-91
2023/08/06 03:50:11;;;;;;;;;;;;;;;20.82;78.67;98096.44;4200383;34;34660;-89
2023/08/06 03:52:39;;;;;;;;;;;;;;;20.74;78.86;98094.44;4200260;34;33271;-89
2023/08/06 03:55:14;;;;;;;;;;;;;;;21.03;77.32;98091.22;4216283;34;34425;-90
2023/08/06 03:57:44;;;;;;;;;;;;;;;20.86;78.44;98085.53;4197343;34;35588;-91
2023/08/06 04:00:13;;;;;;;;;;;;;;;20.94;78.44;98086.69;4210406;34;33229;-89
2023/08/06 04:02:42;;;;;;;;;;;;;;;20.85;79.03;98086.50;4198865;34;32961;-89
2023/08/06 04:05:15;;;;;;;;;;;;;;;20.97;78.90;98082.03;4200396;34;35703;-90
2023/08/06 04:07:43;;;;;;;;;;;;;;;21.00;76.83;98078.31;4199541;34;34498;-89
2023/08/06 04:10:16;;;;;;;;;;;;;;;21.02;77.42;98071.09;4202437;34;35148;-90
2023/08/06 04:12:46;;;;;;;;;;;;;;;21.10;76.62;98082.69;4200003;34;34014;-90
2023/08/06 04:15:17;;;;;;;;;;;;;;;20.87;78.23;98073.19;4197877;34;34345;-89
2023/08/06 04:17:46;;;;;;;;;;;;;;;21.17;77.16;98076.94;4216640;34;33348;-89
2023/08/06 04:20:15;;;;;;;;;;;;;;;20.85;77.28;98069.81;4213840;34;34817;-91
2023/08/06 04:22:46;;;;;;;;;;;;;;;20.74;76.08;98070.72;4192433;34;34160;-91
2023/08/06 04:25:23;;;;;;;;;;;;;;;20.25;79.05;98072.78;4211546;34;34461;-90
2023/08/06 04:27:53;;;;;;;;;;;;;;;20.20;79.72;98066.22;4204332;34;34139;-89
2023/08/06 04:30:30;;;;;;;;;;;;;;;20.35;78.74;98065.00;4212411;34;32912;-88
2023/08/06 04:33:01;;;;;;;;;;;;;;;20.30;79.50;98068.97;4196842;34;33093;-89
2023/08/06 04:35:33;;;;;;;;;;;;;;;20.31;79.19;98065.37;4209365;34;33869;-89
2023/08/06 04:38:05;;;;;;;;;;;;;;;20.11;80.38;98059.88;4199859;34;34111;-90
2023/08/06 04:40:34;;;;;;;;;;;;;;;20.25;80.26;98056.16;4217028;34;33798;-90
2023/08/06 04:43:07;;;;;;;;;;;;;;;20.36;80.19;98058.78;4212162;34;32987;-90
2023/08/06 04:45:36;;;;;;;;;;;;;;;20.22;78.54;98056.38;4196659;34;34345;-89
2023/08/06 04:48:08;;;;;;;;;;;;;;;20.25;78.96;98062.25;4200868;34;34169;-89
2023/08/06 04:50:36;;;;;;;;;;;;;;;20.23;78.76;98058.91;4212755;34;34643;-91
2023/08/06 04:53:10;;;;;;;;;;;;;;;20.39;77.37;98057.69;4202962;34;34181;-90
2023/08/06 04:55:38;;;;;;;;;;;;;;;20.22;77.33;98056.38;4196086;34;34030;-90
2023/08/06 04:58:13;;;;;;;;;;;;;;;20.04;78.88;98051.63;4195523;34;35196;-91
2023/08/06 05:00:42;;;;;;;;;;;;;;;20.09;79.19;98037.25;4208647;34;34356;-92
2023/08/06 05:03:12;;;;;;;;;;;;;;;19.98;78.82;98041.59;4217839;34;34372;-90
2023/08/06 05:05:41;;;;;;;;;;;;;;;20.15;78.43;98049.94;4209844;34;33364;-91
2023/08/06 05:08:15;;;;;;;;;;;;;;;20.01;78.99;98048.41;4213838;34;33880;-91
2023/08/06 05:10:44;;;;;;;;;;;;;;;20.14;78.78;98046.47;4199655;34;34728;-90
2023/08/06 05:13:17;;;;;;;;;;;;;;;20.09;78.03;98045.16;4212792;34;33016;-91
2023/08/06 05:15:47;;;;;;;;;;;;;;;20.19;78.38;98038.22;4200602;34;34308;-93
2023/08/06 05:18:17;;;;;;;;;;;;;;;20.22;77.51;98035.31;4198935;34;34777;-90
2023/08/06 05:20:45;;;;;;;;;;;;;;;20.11;76.82;98033.56;4201150;34;35074;-90
2023/08/06 05:23:19;;;;;;;;;;;;;;;19.91;77.66;98031.62;4199720;34;35495;-89
2023/08/06 05:25:48;;;;;;;;;;;;;;;19.81;78.29;98034.13;4216191;34;34877;-92
2023/08/06 05:28:25;;;;;;;;;;;;;;;20.06;78.02;98040.16;4204360;34;32990;-91
2023/08/06 05:30:54;;;;;;;;;;;;;;;20.08;77.10;98039.06;4208180;34;33759;-92
2023/08/06 05:33:28;;;;;;;;;;;;;;;19.95;77.01;98036.53;4199148;34;32529;-92
2023/08/06 05:36:07;;;;;;;;;;;;;;;19.83;77.52;98032.22;4210212;34;34787;-91
2023/08/06 05:38:35;;;;;;;;;;;;;;;19.51;78.08;98029.41;4195028;34;34186;-92
2023/08/06 05:41:05;;;;;;;;;;;;;;;19.35;78.90;98030.59;4211095;34;34529;-90
2023/08/06 05:43:35;;;;;;;;;;;;;;;19.57;78.48;98035.06;4209790;34;33657;-89
2023/08/06 05:46:07;;;;;;;;;;;;;;;19.49;78.03;98029.53;4205293;34;33945;-90
2023/08/06 05:48:36;;;;;;;;;;;;;;;19.40;78.14;98030.22;4200155;34;35262;-91
2023/08/06 05:51:07;;;;;;;;;;;;;;;19.47;77.09;98027.97;4204568;34;34743;-92
2023/08/06 05:53:35;;;;;;;;;;;;;;;19.06;78.10;98030.12;4197472;34;32586;-90
2023/08/06 05:56:12;;;;;;;;;;;;;;;18.98;78.31;98016.72;4194546;34;34563;-90
2023/08/06 05:58:42;;;;;;;;;;;;;;;18.80;78.58;98028.59;4210324;34;34079;-93
2023/08/06 06:01:17;;;;;;;;;;;;;;;18.81;79.61;98014.53;4207938;34;34074;-92
2023/08/06 06:03:54;;;;;;;;;;;;;;;18.86;78.69;98012.37;4201798;34;34560;-90
2023/08/06 06:06:23;;;;;;;;;;;;;;;18.70;78.95;98005.63;4198961;34;35068;-89
2023/08/06 06:08:52;;;;;;;;;;;;;;;18.20;81.34;98007.47;4201635;34;35989;-91
2023/08/06 06:11:33;;;;;;;;;;;;;;;18.11;82.86;98000.25;4197583;34;34558;-91
2023/08/06 06:14:18;;;;;;;;;;;;;;;18.30;82.51;97995.38;4218613;28;33162;-92
2023/08/06 06:17:05;;;;;;;;;;;;;;;18.20;83.16;98007.47;4234669;33;35486;-90
2023/08/06 06:19:45;;;;;;;;;;;;;;;18.37;82.01;98001.03;4229372;33;34795;-91
2023/08/06 06:22:14;;;;;;;;;;;;;;;18.32;82.29;98006.59;4223361;33;34702;-90
2023/08/06 06:24:44;;;;;;;;;;;;;;;18.22;82.81;98013.47;4225177;33;33186;-91
2023/08/06 06:27:13;;;;;;;;;;;;;;;18.21;82.99;98017.00;4228622;33;33115;-91
2023/08/06 06:29:42;;;;;;;;;;;;;;;18.26;82.92;98022.78;4228219;33;33303;-91
2023/08/06 06:32:16;;;;;;;;;;;;;;;18.43;82.10;98021.56;4223286;33;33930;-92
2023/08/06 06:34:48;;;;;;;;;;;;;;;18.62;81.72;98021.06;4226778;33;34045;-90
2023/08/06 06:37:17;;;;;;;;;;;;;;;18.55;80.47;98036.44;4226660;33;33462;-90
2023/08/06 06:39:46;;;;;;;;;;;;;;;18.42;81.61;98045.31;4230265;33;34420;-89
2023/08/06 06:42:16;;;;;;;;;;;;;;;18.53;81.05;98033.09;4220746;33;35463;-92
2023/08/06 06:44:53;;;;;;;;;;;;;;;18.33;81.85;98037.13;4223622;33;35343;-91
2023/08/06 06:47:25;;;;;;;;;;;;;;;18.33;81.47;98042.37;4227004;33;33730;-90
2023/08/06 06:50:00;;;;;;;;;;;;;;;18.25;81.85;98036.84;4240021;33;36372;-92
2023/08/06 06:52:35;;;;;;;;;;;;;;;18.34;80.79;98038.84;4230139;33;33674;-92
2023/08/06 06:55:06;;;;;;;;;;;;;;;18.08;82.65;98039.84;4224004;33;32628;-92
2023/08/06 06:57:42;;;;;;;;;;;;;;;18.45;81.52;98039.84;4236937;33;34181;-90
2023/08/06 07:00:15;;;;;;;;;;;;;;;18.58;80.78;98029.28;4224897;33;34106;-90
2023/08/06 07:02:48;;;;;;;;;;;;;;;18.61;80.29;98024.66;4223158;33;34726;-91
2023/08/06 07:05:26;;;;;;;;;;;;;;;18.48;81.05;98023.88;4229634;33;33727;-92
2023/08/06 07:08:09;;;;;;;;;;;;;;;18.49;80.06;98025.56;4226833;33;33741;-93
2023/08/06 07:10:46;;;;;;;;;;;;;;;18.67;79.58;98032.09;4222413;33;35572;-91
2023/08/06 07:13:16;;;;;;;;;;;;;;;18.76;79.97;98030.62;4218036;33;34741;-90
2023/08/06 07:19:32;;;;;;;;;;;;;;;19.06;77.51;98034.56;4212845;33;33646;-93
2023/08/06 07:42:21;;;;;;;;;;;;;;;19.19;75.99;98051.94;5341481;26;862234;-90
2023/08/06 10:39:15;;;;;;;;;;;;;;;20.16;66.37;98135.88;5026185;28;35311;-92
2023/08/06 10:42:03;;;;;;;;;;;;;;;19.98;66.20;98141.59;5101261;28;36691;-90
2023/08/06 10:45:14;;;;;;;;;;;;;;;19.89;66.27;98141.47;5097075;28;34903;-90
2023/08/06 10:54:06;;;;;;;;;;;;;;;19.45;67.46;98150.84;5088595;28;34122;-91
2023/08/06 10:56:47;;;;;;;;;;;;;;;19.86;67.61;98141.69;5119567;27;32879;-91
2023/08/06 10:59:41;;;;;;;;;;;;;;;19.88;67.05;98145.03;5140679;27;33360;-90
2023/08/06 11:02:22;;;;;;;;;;;;;;;20.26;65.29;98152.62;5188159;27;33765;-89
2023/08/06 11:05:23;;;;;;;;;;;;;;;20.30;64.91;98146.19;5288013;27;36843;-92
2023/08/06 11:07:58;;;;;;;;;;;;;;;20.11;65.29;98153.81;5274889;27;35453;-91
2023/08/06 11:11:44;;;;;;;;;;;;;;;20.15;64.81;98161.38;5267480;27;32913;-91
2023/08/06 11:14:38;;;;;;;;;;;;;;;19.80;66.23;98158.78;5289585;27;34412;-94
2023/08/06 11:20:49;;;;;;;;;;;;;;;19.29;69.98;98177.44;5186469;27;34324;-90
2023/08/06 11:23:44;;;;;;;;;;;;;;;18.78;70.33;98167.97;5181373;27;35314;-90
2023/08/06 11:33:31;;;;;;;;;;;;;;;19.13;70.13;98154.06;5135869;27;33016;-91
2023/08/06 11:36:17;;;;;;;;;;;;;;;19.15;68.74;98145.09;5158256;27;34037;-91
2023/08/06 11:55:35;;;;;;;;;;;;;;;20.10;65.91;98163.50;5234450;27;34448;-92
2023/08/06 11:58:25;;;;;;;;;;;;;;;19.76;68.69;98154.69;5250536;27;34442;-91
2023/08/06 12:01:20;;;;;;;;;;;;;;;19.59;70.03;98177.81;5257748;27;32651;-89
2023/08/06 12:03:53;;;;;;;;;;;;;;;19.96;71.42;98169.84;5272321;27;35809;-91
2023/08/06 12:06:51;;;;;;;;;;;;;;;19.47;72.91;98185.78;5271602;27;35231;-92
2023/08/06 12:09:27;;;;;;;;;;;;;;;19.18;75.31;98194.00;5270815;27;37285;-91
2023/08/06 12:11:56;;;;;;;;;;;;;;;19.25;73.52;98189.13;5288130;27;33861;-88
2023/08/06 12:14:50;;;;;;;;;;;;;;;19.23;74.16;98201.56;5293724;27;33888;-91
2023/08/06 12:17:24;;;;;;;;;;;;;;;19.15;74.78;98207.38;5265917;27;34251;-91
2023/08/06 12:20:24;;;;;;;;;;;;;;;18.87;74.49;98214.59;5285394;27;33736;-91
2023/08/06 12:23:00;;;;;;;;;;;;;;;18.92;73.95;98212.50;5273904;27;34706;-91
2023/08/06 12:25:33;;;;;;;;;;;;;;;18.98;73.49;98214.66;5267998;27;35562;-90
2023/08/06 12:28:29;;;;;;;;;;;;;;;19.16;72.55;98209.03;5289968;27;33746;-90
2023/08/06 12:31:04;;;;;;;;;;;;;;;18.85;73.57;98211.25;5275125;27;32667;-90
2023/08/06 12:33:34;;;;;;;;;;;;;;;19.08;72.74;98217.47;5276205;27;34226;-93
2023/08/06 12:36:11;;;;;;;;;;;;;;;19.12;71.22;98213.69;5290483;27;33121;-88
2023/08/06 12:38:47;;;;;;;;;;;;;;;19.22;71.22;98216.50;5275412;27;32782;-91
2023/08/06 12:41:18;;;;;;;;;;;;;;;19.33;70.52;98228.84;5289598;27;33332;-91
2023/08/06 12:43:52;;;;;;;;;;;;;;;19.39;69.72;98225.78;5276393;27;34195;-90
2023/08/06 12:46:31;;;;;;;;;;;;;;;19.44;69.32;98213.12;5273306;27;35118;-90
2023/08/06 12:49:01;;;;;;;;;;;;;;;19.62;68.68;98224.13;5271453;27;35953;-90
2023/08/06 12:51:35;;;;;;;;;;;;;;;19.66;68.04;98232.59;5292961;27;33767;-90
2023/08/06 12:54:14;;;;;;;;;;;;;;;19.90;68.04;98230.81;5270701;27;34151;-91
2023/08/06 12:57:09;;;;;;;;;;;;;;;19.86;67.90;98223.25;5279262;27;33522;-89
2023/08/06 12:59:39;;;;;;;;;;;;;;;19.73;68.14;98242.59;5294430;27;33500;-90
2023/08/06 13:02:12;;;;;;;;;;;;;;;19.77;67.55;98235.31;5291502;27;33876;-91
2023/08/06 13:04:44;;;;;;;;;;;;;;;19.98;66.78;98232.87;5289568;27;34074;-91
2023/08/06 13:07:38;;;;;;;;;;;;;;;19.92;66.96;98233.34;5268423;27;34345;-91
2023/08/06 13:10:16;;;;;;;;;;;;;;;19.83;67.47;98234.84;5271406;27;35443;-89
2023/08/06 13:12:54;;;;;;;;;;;;;;;19.80;68.13;98249.09;5274833;27;34809;-89
2023/08/06 13:15:31;;;;;;;;;;;;;;;19.80;68.89;98254.34;5293916;27;33259;-90
2023/08/06 13:18:05;;;;;;;;;;;;;;;19.59;69.88;98261.97;5270169;27;33965;-90
2023/08/06 13:20:46;;;;;;;;;;;;;;;19.19;72.05;98266.66;5271702;27;36455;-90
2023/08/06 13:23:24;;;;;;;;;;;;;;;19.08;73.20;98263.94;5268886;27;35766;-90
2023/08/06 13:25:58;;;;;;;;;;;;;;;19.29;73.87;98278.19;5270794;27;36742;-90
2023/08/06 13:28:29;;;;;;;;;;;;;;;19.46;73.02;98278.78;5295024;27;33954;-88
2023/08/06 13:31:09;;;;;;;;;;;;;;;19.46;72.05;98279.63;5273236;27;35217;-89
2023/08/06 13:33:42;;;;;;;;;;;;;;;19.31;71.70;98275.47;5270626;27;34156;-91
2023/08/06 13:36:11;;;;;;;;;;;;;;;19.29;71.31;98267.69;5270823;27;35228;-91
2023/08/06 13:38:44;;;;;;;;;;;;;;;19.56;71.26;98275.38;5272711;27;32993;-87
2023/08/06 13:41:15;;;;;;;;;;;;;;;19.57;69.49;98274.44;5275545;27;34617;-91
2023/08/06 13:43:59;;;;;;;;;;;;;;;19.61;70.02;98273.25;5289687;27;35016;-91
2023/08/06 13:46:49;;;;;;;;;;;;;;;19.52;70.43;98278.31;5287697;27;34892;-91
2023/08/06 13:49:20;;;;;;;;;;;;;;;19.57;70.25;98282.31;5270256;27;33259;-91
2023/08/06 13:52:27;;;;;;;;;;;;;;;19.67;69.78;98286.87;5289533;27;33479;-91
2023/08/06 13:55:05;;;;;;;;;;;;;;;19.59;69.89;98274.31;5287279;27;34028;-91
2023/08/06 13:57:38;;;;;;;;;;;;;;;19.79;69.09;98275.53;5294746;27;33288;-89
2023/08/06 14:00:11;;;;;;;;;;;;;;;19.72;67.97;98263.78;5269678;27;33907;-90
2023/08/06 14:02:50;;;;;;;;;;;;;;;19.50;68.72;98281.09;5290025;27;33634;-89
2023/08/06 14:05:22;;;;;;;;;;;;;;;19.55;68.87;98293.91;5267732;27;35176;-89
2023/08/06 14:07:53;;;;;;;;;;;;;;;19.58;69.27;98297.16;5267558;27;36879;-88
2023/08/06 14:10:23;;;;;;;;;;;;;;;19.36;69.86;98297.84;5274875;27;35032;-89
2023/08/06 14:12:52;;;;;;;;;;;;;;;19.32;69.20;98288.50;5288849;27;34492;-91
2023/08/06 14:15:49;;;;;;;;;;;;;;;19.46;69.74;98300.66;5287107;27;33695;-89
2023/08/06 14:18:18;;;;;;;;;;;;;;;19.45;68.77;98295.50;5271063;27;34457;-94
2023/08/06 14:20:50;;;;;;;;;;;;;;;19.32;68.93;98295.53;5271852;27;34641;-90
2023/08/06 14:23:20;;;;;;;;;;;;;;;19.55;68.59;98302.63;5275658;27;34635;-92
2023/08/06 14:25:50;;;;;;;;;;;;;;;19.68;67.79;98299.97;5269334;27;35260;-90
2023/08/06 14:28:24;;;;;;;;;;;;;;;19.73;67.29;98308.37;5269254;27;36523;-87
2023/08/06 14:31:02;;;;;;;;;;;;;;;19.49;68.15;98313.59;5272754;27;33962;-91
2023/08/06 14:33:38;;;;;;;;;;;;;;;19.31;68.16;98307.03;5268594;27;34163;-88
2023/08/06 14:36:07;;;;;;;;;;;;;;;19.66;66.83;98306.28;5275455;27;37099;-89
2023/08/06 14:38:41;;;;;;;;;;;;;;;19.40;66.32;98315.09;5268184;27;34551;-89
2023/08/06 14:41:32;;;;;;;;;;;;;;;19.24;67.12;98309.25;5273515;27;34742;-87
2023/08/06 14:44:13;;;;;;;;;;;;;;;19.44;66.64;98320.12;5269137;27;34535;-90
2023/08/06 14:46:53;;;;;;;;;;;;;;;19.64;66.25;98319.53;5289177;27;34682;-90
2023/08/06 14:49:25;;;;;;;;;;;;;;;19.54;66.10;98324.63;5271997;27;32414;-90
2023/08/06 14:51:58;;;;;;;;;;;;;;;19.69;65.29;98335.00;5275188;27;33861;-87
2023/08/06 14:54:36;;;;;;;;;;;;;;;19.49;65.53;98325.91;5268782;27;33396;-87
2023/08/06 14:57:06;;;;;;;;;;;;;;;19.49;65.68;98332.00;5287166;27;33341;-89
2023/08/06 14:59:40;;;;;;;;;;;;;;;19.50;65.52;98330.19;5268930;27;35171;-89
2023/08/06 15:02:18;;;;;;;;;;;;;;;19.60;65.20;98324.19;5275101;27;32405;-90
2023/08/06 15:04:54;;;;;;;;;;;;;;;19.84;64.97;98323.41;5268020;27;32994;-88
2023/08/06 15:07:24;;;;;;;;;;;;;;;20.23;63.56;98330.13;5266943;27;34951;-89
2023/08/06 15:09:55;;;;;;;;;;;;;;;20.49;61.46;98326.50;5272330;27;32721;-90
2023/08/06 15:12:36;;;;;;;;;;;;;;;20.36;60.52;98332.69;5286539;27;33927;-89
2023/08/06 15:15:07;;;;;;;;;;;;;;;20.33;61.40;98347.87;5268675;27;34086;-90
2023/08/06 15:17:41;;;;;;;;;;;;;;;20.10;60.74;98328.53;5273503;27;34733;-92
2023/08/06 15:20:15;;;;;;;;;;;;;;;19.97;62.09;98339.97;5270769;27;34652;-88
2023/08/06 15:23:01;;;;;;;;;;;;;;;20.30;61.48;98342.84;5268817;27;33344;-87
2023/08/06 15:25:33;;;;;;;;;;;;;;;20.62;60.76;98343.09;5286527;27;34164;-89
2023/08/06 15:28:13;;;;;;;;;;;;;;;20.58;60.74;98342.47;5270905;27;34167;-90
2023/08/06 15:30:51;;;;;;;;;;;;;;;20.40;61.25;98344.69;5290742;27;35184;-91
2023/08/06 15:33:42;;;;;;;;;;;;;;;20.56;60.79;98343.53;5264288;27;36433;-91
2023/08/06 15:36:27;;;;;;;;;;;;;;;20.86;59.29;98346.47;5285769;27;34573;-90
2023/08/06 15:39:11;;;;;;;;;;;;;;;20.50;59.99;98336.09;5287917;27;33774;-90
2023/08/06 15:41:54;;;;;;;;;;;;;;;19.91;61.86;98352.72;5284562;27;34324;-91
2023/08/06 15:44:30;;;;;;;;;;;;;;;19.84;62.34;98352.34;5267091;27;31678;-90
2023/08/06 15:47:07;;;;;;;;;;;;;;;19.59;63.15;98355.84;5273797;27;37394;-91
2023/08/06 15:49:56;;;;;;;;;;;;;;;19.62;63.99;98368.81;5250967;27;35750;-91
2023/08/06 15:52:32;;;;;;;;;;;;;;;19.62;63.53;98360.91;5245657;27;34439;-90
2023/08/06 15:55:12;;;;;;;;;;;;;;;19.77;62.79;98356.38;5263955;27;34556;-89
2023/08/06 15:57:55;;;;;;;;;;;;;;;19.75;63.02;98367.00;5249953;27;35288;-90
2023/08/06 16:00:31;;;;;;;;;;;;;;;19.76;63.05;98368.66;5263568;27;34055;-91
2023/08/06 16:03:17;;;;;;;;;;;;;;;19.93;62.12;98371.88;5270129;27;33945;-90
2023/08/06 16:05:56;;;;;;;;;;;;;;;19.55;63.24;98378.09;5266826;27;34209;-89
2023/08/06 16:08:25;;;;;;;;;;;;;;;19.71;62.85;98378.69;5265881;27;34756;-90
2023/08/06 16:10:58;;;;;;;;;;;;;;;19.84;62.29;98386.56;5250980;27;35994;-90
2023/08/06 16:13:29;;;;;;;;;;;;;;;19.99;61.99;98387.22;5263904;27;33307;-89
2023/08/06 16:16:06;;;;;;;;;;;;;;;19.54;62.95;98394.81;5271124;27;33669;-89
2023/08/06 16:18:54;;;;;;;;;;;;;;;19.39;63.73;98391.47;5245838;27;36545;-91
2023/08/06 16:21:31;;;;;;;;;;;;;;;19.42;62.79;98398.28;5265004;27;36107;-91
2023/08/06 16:24:06;;;;;;;;;;;;;;;19.29;63.45;98403.59;5244537;27;33849;-90
2023/08/06 16:26:35;;;;;;;;;;;;;;;19.47;63.27;98414.59;5265662;27;32842;-89
2023/08/06 16:29:08;;;;;;;;;;;;;;;19.28;63.82;98418.53;5268356;27;33385;-85
2023/08/06 16:31:37;;;;;;;;;;;;;;;19.34;63.39;98406.72;5251532;27;36256;-92
2023/08/06 16:34:11;;;;;;;;;;;;;;;19.19;63.66;98411.25;5263848;27;33291;-91
2023/08/06 16:36:42;;;;;;;;;;;;;;;19.15;63.66;98423.75;5245860;27;33850;-88
2023/08/06 16:39:21;;;;;;;;;;;;;;;19.17;63.49;98431.56;5251781;27;35550;-89
2023/08/06 16:42:06;;;;;;;;;;;;;;;19.07;63.34;98426.09;5252433;27;34371;-87
2023/08/06 16:44:46;;;;;;;;;;;;;;;19.01;63.97;98426.50;5252545;27;32188;-89
2023/08/06 16:47:15;;;;;;;;;;;;;;;19.12;63.53;98431.87;5245977;27;34198;-90
2023/08/06 16:49:44;;;;;;;;;;;;;;;19.28;62.84;98430.81;5247952;27;31868;-91
2023/08/06 16:52:19;;;;;;;;;;;;;;;19.07;63.74;98433.13;5263800;27;33828;-88
2023/08/06 16:54:49;;;;;;;;;;;;;;;19.01;64.06;98426.50;5267008;27;32906;-88
2023/08/06 16:57:19;;;;;;;;;;;;;;;18.81;65.07;98437.53;5251523;27;32653;-89
2023/08/06 16:59:48;;;;;;;;;;;;;;;19.00;64.07;98437.97;5268171;27;33508;-87
2023/08/06 17:02:19;;;;;;;;;;;;;;;18.92;64.41;98435.03;5263884;27;34256;-87
2023/08/06 17:04:49;;;;;;;;;;;;;;;18.79;64.80;98431.53;5245565;27;35231;-89
2023/08/06 17:07:25;;;;;;;;;;;;;;;19.07;64.05;98436.59;5270172;27;32942;-86
2023/08/06 17:09:55;;;;;;;;;;;;;;;18.95;64.43;98432.19;5250717;27;35641;-89
2023/08/06 17:12:31;;;;;;;;;;;;;;;18.96;63.77;98434.69;5267319;27;34447;-90
2023/08/06 17:15:06;;;;;;;;;;;;;;;19.11;63.83;98440.72;5263472;27;33365;-89
2023/08/06 17:17:35;;;;;;;;;;;;;;;19.28;62.86;98441.31;5251100;27;31784;-87